TimeMST,TemperatureF,Dew PointF,Humidity,Sea Level PressureIn,VisibilityMPH,Wind Direction,Wind SpeedMPH,Gust SpeedMPH,PrecipitationIn,Events,Conditions,WindDirDegrees,DateUTC
12:50 AM,6.8,3.2,85,30.05,8.0,NNW,4.6,-,N/A,,Scattered Clouds,330,2013-01-01 07:50:00
12:53 AM,7.0,3.9,87,30.23,5.0,NW,3.5,-,N/A,,Mostly Cloudy,320,2013-01-01 07:53:00
1:20 AM,6.8,3.2,85,30.05,1.5,Calm,Calm,-,N/A,,Overcast,0,2013-01-01 08:20:00
1:28 AM,6.8,3.2,85,30.06,0.5,Calm,Calm,-,N/A,Fog,Light Freezing Fog,0,2013-01-01 08:28:00
1:53 AM,7.0,3.9,87,30.25,1.0,Calm,Calm,-,N/A,,Mist,0,2013-01-01 08:53:00
2:00 AM,6.8,3.2,85,30.07,0.8,West,4.6,-,N/A,,Mist,270,2013-01-01 09:00:00
2:03 AM,6.8,3.2,85,30.07,1.2,West,3.5,-,N/A,,Scattered Clouds,270,2013-01-01 09:03:00
2:06 AM,6.8,3.2,85,30.07,3.0,West,3.5,-,N/A,,Partly Cloudy,280,2013-01-01 09:06:00
2:53 AM,6.1,3.0,87,30.25,7.0,NW,3.5,-,N/A,,Partly Cloudy,320,2013-01-01 09:53:00
3:53 AM,6.1,3.0,87,30.26,10.0,WNW,5.8,-,N/A,,Clear,300,2013-01-01 10:53:00
4:53 AM,8.1,5.0,87,30.26,10.0,NW,8.1,-,N/A,,Clear,320,2013-01-01 11:53:00
6:53 AM,7.0,3.0,84,30.30,10.0,NW,6.9,-,N/A,,Clear,310,2013-01-01 13:53:00
7:53 AM,6.1,1.9,83,30.32,10.0,West,5.8,-,N/A,,Clear,280,2013-01-01 14:53:00
8:53 AM,10.9,7.0,84,30.33,10.0,WNW,6.9,-,N/A,,Clear,300,2013-01-01 15:53:00
9:53 AM,17.1,10.0,74,30.34,10.0,WNW,4.6,-,N/A,,Clear,300,2013-01-01 16:53:00
10:53 AM,21.0,10.9,65,30.30,10.0,WNW,3.5,-,N/A,,Clear,290,2013-01-01 17:53:00
11:53 AM,25.0,12.0,58,30.25,10.0,NW,3.5,-,N/A,,Clear,320,2013-01-01 18:53:00
12:53 PM,30.0,14.0,51,30.21,10.0,West,9.2,-,N/A,,Clear,270,2013-01-01 19:53:00
1:53 PM,30.0,14.0,51,30.18,10.0,WSW,17.3,-,N/A,,Clear,250,2013-01-01 20:53:00
3:53 PM,28.9,14.0,54,30.18,10.0,West,8.1,-,N/A,,Clear,270,2013-01-01 22:53:00
4:53 PM,24.1,12.9,62,30.20,10.0,WNW,9.2,-,N/A,,Clear,290,2013-01-01 23:53:00
5:53 PM,21.9,10.9,63,30.24,10.0,West,11.5,-,N/A,,Clear,280,2013-01-02 00:53:00
6:53 PM,21.0,9.0,60,30.23,10.0,WNW,13.8,-,N/A,,Clear,300,2013-01-02 01:53:00
7:53 PM,21.9,10.9,63,30.24,10.0,WNW,11.5,-,N/A,,Overcast,290,2013-01-02 02:53:00
8:53 PM,23.0,12.0,63,30.24,10.0,WNW,10.4,-,N/A,,Overcast,290,2013-01-02 03:53:00
9:53 PM,25.0,17.1,72,30.23,10.0,WNW,13.8,-,N/A,,Overcast,290,2013-01-02 04:53:00
10:50 PM,24.8,19.4,80,30.09,10.0,West,13.8,19.6,N/A,,Overcast,280,2013-01-02 05:50:00
10:53 PM,25.0,19.0,78,30.23,10.0,West,13.8,19.6,N/A,,Overcast,280,2013-01-02 05:53:00
11:26 PM,24.8,19.4,80,30.09,10.0,WNW,13.8,-,N/A,,Overcast,290,2013-01-02 06:26:00
11:53 PM,26.1,19.9,78,30.20,10.0,WNW,13.8,-,N/A,,Overcast,290,2013-01-02 06:53:00